Time;durP1;ratioP1;P1;durP2;ratioP2;P2;SDS_P1;SDS_P2;PMS_P1;PMS_P2;Temp;Humidity;BMP_temperature;BMP_pressure;BME280_temperature;BME280_humidity;BME280_pressure;Samples;Min_cycle;Max_cycle;Signal;HPM_P1;HPM_P2
2022/10/31 00:00:07;;;;;;;11.93;6.37;;;15.70;99.90;;;;;;5058611;28;20877;-84
2022/10/31 00:02:34;;;;;;;11.93;6.20;;;15.80;99.90;;;;;;5045992;28;20464;-86
2022/10/31 00:05:01;;;;;;;9.60;6.93;;;15.80;99.90;;;;;;5039985;28;20462;-85
2022/10/31 00:07:29;;;;;;;8.97;6.87;;;15.80;99.90;;;;;;5055273;28;21002;-83
2022/10/31 00:09:56;;;;;;;12.63;7.17;;;15.80;99.90;;;;;;5054420;28;20548;-84
2022/10/31 00:12:22;;;;;;;9.73;6.90;;;15.80;99.90;;;;;;5038677;28;20991;-84
2022/10/31 00:14:49;;;;;;;10.43;5.93;;;15.90;99.90;;;;;;5050837;28;20460;-84
2022/10/31 00:17:16;;;;;;;10.37;5.97;;;15.90;99.90;;;;;;5056460;28;20528;-85
2022/10/31 00:19:43;;;;;;;9.80;5.87;;;15.90;99.90;;;;;;5040049;28;20930;-84
2022/10/31 00:22:09;;;;;;;12.03;6.63;;;15.90;99.90;;;;;;5040959;28;20476;-85
2022/10/31 00:24:38;;;;;;;8.60;5.73;;;15.90;99.90;;;;;;5041496;28;20512;-84
2022/10/31 00:27:04;;;;;;;11.87;6.37;;;15.90;99.90;;;;;;5043984;28;20471;-83
2022/10/31 00:29:31;;;;;;;9.10;6.30;;;15.90;99.90;;;;;;5060267;28;20523;-85
2022/10/31 00:31:58;;;;;;;14.57;7.10;;;15.90;99.90;;;;;;5042356;28;20565;-84
2022/10/31 00:34:25;;;;;;;9.27;6.57;;;15.90;99.90;;;;;;5046083;28;20765;-85
2022/10/31 00:36:51;;;;;;;9.40;7.00;;;15.90;99.90;;;;;;5059710;28;20959;-84
2022/10/31 00:39:18;;;;;;;12.23;6.40;;;15.90;99.90;;;;;;5061128;28;20516;-83
2022/10/31 00:41:46;;;;;;;8.10;7.00;;;15.90;99.90;;;;;;5061386;28;20501;-85
2022/10/31 00:44:13;;;;;;;11.80;7.00;;;15.90;99.90;;;;;;5043512;28;20456;-84
2022/10/31 00:46:40;;;;;;;10.67;7.17;;;15.80;99.90;;;;;;5040821;28;20494;-82
2022/10/31 00:49:07;;;;;;;12.07;7.57;;;15.80;99.90;;;;;;5066436;28;20451;-83
2022/10/31 00:51:33;;;;;;;15.50;7.60;;;15.80;99.90;;;;;;5074244;28;20507;-82
2022/10/31 00:54:00;;;;;;;10.70;7.37;;;15.80;99.90;;;;;;5066197;28;20483;-85
2022/10/31 00:56:27;;;;;;;13.13;7.50;;;15.80;99.90;;;;;;5048744;28;20977;-85
2022/10/31 00:58:55;;;;;;;11.90;7.90;;;15.70;99.90;;;;;;5064809;28;20983;-84
2022/10/31 01:01:22;;;;;;;9.70;7.00;;;15.70;99.90;;;;;;5051881;28;20476;-83
2022/10/31 01:03:49;;;;;;;10.00;7.20;;;15.70;99.90;;;;;;5046298;28;20461;-85
2022/10/31 01:06:16;;;;;;;11.00;6.93;;;15.70;99.90;;;;;;5052940;28;20456;-86
2022/10/31 01:08:42;;;;;;;8.00;6.40;;;15.70;99.90;;;;;;5065567;28;20563;-85
2022/10/31 01:11:12;;;;;;;11.90;7.47;;;15.70;99.90;;;;;;5066005;28;21007;-85
2022/10/31 01:13:40;;;;;;;10.37;7.63;;;15.60;99.90;;;;;;5064641;28;20470;-86
2022/10/31 01:16:10;;;;;;;12.03;7.10;;;15.60;99.90;;;;;;5046892;28;20451;-85
2022/10/31 01:18:37;;;;;;;11.37;6.67;;;15.70;99.90;;;;;;5060469;28;20816;-86
2022/10/31 01:21:06;;;;;;;10.50;6.93;;;15.70;99.90;;;;;;5047008;28;20536;-85
2022/10/31 01:23:34;;;;;;;11.30;7.23;;;15.70;99.90;;;;;;5046888;28;20448;-84
2022/10/31 01:26:07;;;;;;;9.17;7.13;;;15.70;99.90;;;;;;5046648;28;20841;-86
2022/10/31 01:28:34;;;;;;;12.23;7.13;;;15.70;99.90;;;;;;5045933;28;21018;-86
2022/10/31 01:31:02;;;;;;;12.43;6.80;;;15.70;99.90;;;;;;5046965;28;20482;-84
2022/10/31 01:33:30;;;;;;;9.63;6.83;;;15.70;99.90;;;;;;5046506;28;20466;-84
2022/10/31 01:35:57;;;;;;;10.20;6.50;;;15.70;99.90;;;;;;5051009;28;20797;-86
2022/10/31 01:38:24;;;;;;;9.63;6.50;;;15.70;99.90;;;;;;5052967;28;20451;-86
2022/10/31 01:40:51;;;;;;;12.27;6.80;;;15.70;99.90;;;;;;5055265;28;20551;-86
2022/10/31 01:43:18;;;;;;;14.13;6.97;;;15.70;99.90;;;;;;5048951;28;20448;-83
2022/10/31 01:45:51;;;;;;;10.77;6.40;;;15.70;99.90;;;;;;5053164;28;20448;-84
2022/10/31 01:48:21;;;;;;;13.43;7.60;;;15.70;99.90;;;;;;5054326;28;20513;-85
2022/10/31 01:50:54;;;;;;;12.87;6.50;;;15.70;99.90;;;;;;5046128;28;20482;-84
2022/10/31 01:53:22;;;;;;;10.70;6.17;;;15.80;99.90;;;;;;5046005;28;20479;-85
2022/10/31 01:55:49;;;;;;;13.17;7.10;;;15.80;99.90;;;;;;5063919;28;20904;-86
2022/10/31 01:58:19;;;;;;;10.00;7.43;;;15.80;99.90;;;;;;5052516;28;20859;-85
2022/10/31 02:00:50;;;;;;;9.70;6.73;;;15.80;99.90;;;;;;5045935;28;20494;-83
2022/10/31 02:03:18;;;;;;;12.27;7.50;;;15.80;99.90;;;;;;5054121;28;20451;-85
2022/10/31 02:05:46;;;;;;;9.90;7.50;;;15.80;99.90;;;;;;5049743;28;20451;-86
2022/10/31 02:08:18;;;;;;;14.17;7.60;;;15.80;99.90;;;;;;5047169;28;20556;-84
2022/10/31 02:10:45;;;;;;;11.30;6.80;;;15.80;99.90;;;;;;5063467;28;20475;-86
2022/10/31 02:13:13;;;;;;;11.47;7.33;;;15.80;99.90;;;;;;5058778;28;20458;-85
2022/10/31 02:15:42;;;;;;;8.20;7.10;;;15.80;99.90;;;;;;5061652;28;20456;-86
2022/10/31 02:18:09;;;;;;;12.07;6.93;;;15.80;99.90;;;;;;5065123;28;20440;-84
2022/10/31 02:20:44;;;;;;;14.53;7.40;;;15.80;99.90;;;;;;5056003;28;20455;-85
2022/10/31 02:23:37;;;;;;;12.10;8.00;;;15.80;99.90;;;;;;5051331;28;20959;-83
2022/10/31 02:26:32;;;;;;;14.57;7.50;;;15.80;99.90;;;;;;5052018;28;20462;-86
2022/10/31 02:29:18;;;;;;;16.60;8.70;;;15.80;99.90;;;;;;5045656;28;20486;-84
2022/10/31 02:31:53;;;;;;;11.63;8.10;;;15.80;99.90;;;;;;5046319;28;20468;-84
2022/10/31 02:34:23;;;;;;;12.37;7.70;;;15.80;99.90;;;;;;5056248;28;20440;-86
2022/10/31 02:36:57;;;;;;;11.80;7.40;;;15.70;99.90;;;;;;5065307;28;20457;-86
2022/10/31 02:39:27;;;;;;;10.47;6.67;;;15.70;99.90;;;;;;5065325;28;20462;-85
2022/10/31 02:42:04;;;;;;;15.13;8.10;;;15.70;99.90;;;;;;5049662;28;20790;-85
2022/10/31 02:44:39;;;;;;;13.17;7.13;;;15.60;99.90;;;;;;5038162;28;20473;-85
2022/10/31 02:47:11;;;;;;;10.00;7.10;;;15.60;99.90;;;;;;5066203;28;20492;-84
2022/10/31 02:49:46;;;;;;;11.43;7.20;;;15.60;99.90;;;;;;5046644;28;20449;-84
2022/10/31 02:52:20;;;;;;;11.77;7.30;;;15.60;99.90;;;;;;5045406;28;20952;-83
2022/10/31 02:54:48;;;;;;;10.43;6.30;;;15.60;99.90;;;;;;5052953;28;20450;-82
2022/10/31 02:57:16;;;;;;;12.67;6.93;;;15.60;99.90;;;;;;5052922;28;20476;-86
2022/10/31 02:59:47;;;;;;;11.00;6.90;;;15.60;99.90;;;;;;5043829;28;20458;-84
2022/10/31 03:02:31;;;;;;;9.60;6.53;;;15.60;99.90;;;;;;5044312;28;20480;-85
2022/10/31 03:05:19;;;;;;;9.37;6.53;;;15.60;99.90;;;;;;5043283;28;20446;-86
2022/10/31 03:07:55;;;;;;;8.87;6.70;;;15.60;99.90;;;;;;5060987;28;20556;-84
2022/10/31 03:10:32;;;;;;;11.13;7.13;;;15.60;99.90;;;;;;5045576;28;20435;-84
2022/10/31 03:13:06;;;;;;;12.23;7.40;;;15.60;99.90;;;;;;5051036;28;20682;-85
2022/10/31 03:15:36;;;;;;;10.00;6.30;;;15.60;99.90;;;;;;5051610;28;20455;-86
2022/10/31 03:18:08;;;;;;;15.23;7.00;;;15.60;99.90;;;;;;5050056;28;20454;-86
2022/10/31 03:20:40;;;;;;;12.33;7.13;;;15.60;99.90;;;;;;5065081;28;20458;-82
2022/10/31 03:23:11;;;;;;;13.03;7.60;;;15.60;99.90;;;;;;5065270;28;20447;-84
2022/10/31 03:25:40;;;;;;;11.43;7.17;;;15.70;99.90;;;;;;5051502;28;20449;-86
2022/10/31 03:28:08;;;;;;;12.73;6.83;;;15.70;99.90;;;;;;5049150;28;20489;-83
2022/10/31 03:30:39;;;;;;;13.03;7.60;;;15.70;99.90;;;;;;5054037;28;20531;-83
2022/10/31 03:33:11;;;;;;;14.37;7.47;;;15.70;99.90;;;;;;5045242;28;20455;-85
2022/10/31 03:35:42;;;;;;;11.33;7.60;;;15.70;99.90;;;;;;5049380;28;20454;-85
2022/10/31 03:38:10;;;;;;;13.20;7.27;;;15.70;99.90;;;;;;5044201;28;20507;-86
2022/10/31 03:40:39;;;;;;;12.90;8.70;;;15.70;99.90;;;;;;5044534;28;20462;-85
2022/10/31 03:43:09;;;;;;;14.63;7.70;;;15.60;99.90;;;;;;5044486;28;20507;-85
2022/10/31 03:45:42;;;;;;;14.80;7.63;;;15.60;99.90;;;;;;5055652;28;20447;-84
2022/10/31 03:48:10;;;;;;;9.93;6.87;;;15.50;99.90;;;;;;5042899;28;20486;-83
2022/10/31 03:50:41;;;;;;;11.93;7.57;;;15.50;99.90;;;;;;5043942;28;20455;-86
2022/10/31 03:53:14;;;;;;;9.73;7.00;;;15.40;99.90;;;;;;5044713;28;20462;-82
2022/10/31 03:55:48;;;;;;;9.10;7.33;;;15.40;99.90;;;;;;5058081;28;20545;-85
2022/10/31 03:58:22;;;;;;;10.53;7.10;;;15.30;99.90;;;;;;5060746;28;20431;-85
2022/10/31 04:00:51;;;;;;;14.73;8.30;;;15.30;99.90;;;;;;5043572;28;20957;-86
2022/10/31 04:03:23;;;;;;;14.00;8.00;;;15.20;99.90;;;;;;5044327;28;20961;-84
2022/10/31 04:05:52;;;;;;;12.00;7.20;;;15.10;99.90;;;;;;5044620;28;20798;-84
2022/10/31 04:08:25;;;;;;;9.77;6.30;;;15.10;99.90;;;;;;5043434;28;20489;-83
2022/10/31 04:10:53;;;;;;;9.50;6.77;;;15.00;99.90;;;;;;5044121;28;20466;-86
2022/10/31 04:13:25;;;;;;;10.53;7.40;;;15.00;99.90;;;;;;5045014;28;20446;-84
2022/10/31 04:15:54;;;;;;;9.07;6.40;;;15.00;99.90;;;;;;5059472;28;20508;-86
2022/10/31 04:18:23;;;;;;;10.40;7.20;;;14.90;99.90;;;;;;5062787;28;20461;-84
2022/10/31 04:20:59;;;;;;;10.60;6.93;;;14.90;99.90;;;;;;5064517;28;20537;-86
2022/10/31 04:23:29;;;;;;;10.60;7.27;;;14.90;99.90;;;;;;5057043;28;20434;-86
2022/10/31 04:25:56;;;;;;;14.57;7.50;;;14.80;99.90;;;;;;5059543;28;20452;-84
2022/10/31 04:28:23;;;;;;;9.00;6.63;;;14.80;99.90;;;;;;5061512;28;20483;-86
2022/10/31 04:30:50;;;;;;;10.30;6.90;;;14.70;99.90;;;;;;5048173;28;20475;-84
2022/10/31 04:33:17;;;;;;;16.30;7.53;;;14.70;99.90;;;;;;5043210;28;20515;-84
2022/10/31 04:35:45;;;;;;;14.23;7.80;;;14.60;99.90;;;;;;5055937;28;20964;-84
2022/10/31 04:38:12;;;;;;;11.73;7.30;;;14.60;99.90;;;;;;5061778;28;20447;-85
2022/10/31 04:40:39;;;;;;;11.50;6.77;;;14.50;99.90;;;;;;5063385;28;20889;-86
2022/10/31 04:43:06;;;;;;;10.03;6.73;;;14.50;99.90;;;;;;5064547;28;20444;-84
2022/10/31 04:45:32;;;;;;;11.10;7.83;;;14.50;99.90;;;;;;5051709;28;20460;-84
2022/10/31 04:47:59;;;;;;;12.90;7.80;;;14.50;99.90;;;;;;5042328;28;20494;-85
2022/10/31 04:50:26;;;;;;;17.40;8.40;;;14.50;99.90;;;;;;5042883;28;20449;-82
2022/10/31 04:52:54;;;;;;;14.30;7.50;;;14.40;99.90;;;;;;5043191;28;20957;-84
2022/10/31 04:55:21;;;;;;;11.43;7.43;;;14.40;99.90;;;;;;5053115;28;20453;-84
2022/10/31 04:57:49;;;;;;;12.27;7.73;;;14.40;99.90;;;;;;5062748;28;20458;-85
2022/10/31 05:00:19;;;;;;;11.70;7.90;;;14.40;99.90;;;;;;5045302;28;20461;-85
2022/10/31 05:02:47;;;;;;;16.67;6.83;;;14.40;99.90;;;;;;5042414;28;20455;-85
2022/10/31 05:05:14;;;;;;;12.67;7.40;;;14.30;99.90;;;;;;5050617;28;20459;-87
2022/10/31 05:07:42;;;;;;;12.23;8.00;;;14.30;99.90;;;;;;5062660;28;20455;-84
2022/10/31 05:10:11;;;;;;;13.47;7.90;;;14.30;99.90;;;;;;5061817;28;20446;-85
2022/10/31 05:12:38;;;;;;;14.70;7.90;;;14.20;99.90;;;;;;5062335;28;20473;-86
2022/10/31 05:15:06;;;;;;;12.43;8.03;;;14.20;99.90;;;;;;5053871;28;20550;-85
2022/10/31 05:17:33;;;;;;;18.17;8.77;;;14.20;99.90;;;;;;5062269;28;20459;-83
2022/10/31 05:20:00;;;;;;;10.77;7.87;;;14.20;99.90;;;;;;5062827;28;20528;-84
2022/10/31 05:22:26;;;;;;;10.90;7.00;;;14.20;99.90;;;;;;5062270;28;20474;-84
2022/10/31 05:24:53;;;;;;;14.97;8.23;;;14.20;99.90;;;;;;5060737;28;20455;-84
2022/10/31 05:27:21;;;;;;;10.67;7.63;;;14.10;99.90;;;;;;5061966;28;20536;-84
2022/10/31 05:29:48;;;;;;;14.10;8.00;;;14.10;99.90;;;;;;5054482;28;20547;-83
2022/10/31 05:32:15;;;;;;;17.67;8.47;;;14.10;99.90;;;;;;5042726;28;20485;-83
2022/10/31 05:34:42;;;;;;;11.03;7.13;;;14.10;99.90;;;;;;5053540;28;20449;-84
2022/10/31 05:37:08;;;;;;;10.17;8.73;;;14.00;99.90;;;;;;5042481;28;20453;-84
2022/10/31 05:39:35;;;;;;;11.03;7.10;;;14.00;99.90;;;;;;5041622;28;20461;-84
2022/10/31 05:42:02;;;;;;;15.60;7.83;;;14.00;99.90;;;;;;5041922;28;20488;-83
2022/10/31 05:44:30;;;;;;;14.57;6.93;;;14.00;99.90;;;;;;5044628;28;20524;-84
2022/10/31 05:46:57;;;;;;;10.53;7.63;;;13.90;99.90;;;;;;5066996;28;20533;-83
2022/10/31 05:49:24;;;;;;;12.90;8.83;;;13.90;99.90;;;;;;5065219;28;20485;-86
2022/10/31 05:51:50;;;;;;;13.37;8.07;;;13.90;99.90;;;;;;5064876;28;20545;-84
2022/10/31 05:54:17;;;;;;;11.67;8.80;;;13.90;99.90;;;;;;5063676;28;20454;-83
2022/10/31 05:56:44;;;;;;;14.43;8.00;;;13.90;99.90;;;;;;5045996;28;20454;-85
2022/10/31 05:59:11;;;;;;;12.00;7.47;;;13.90;99.90;;;;;;5050803;28;20821;-83
2022/10/31 06:01:39;;;;;;;12.97;8.20;;;13.90;99.90;;;;;;5065944;28;20471;-83
2022/10/31 06:04:06;;;;;;;10.67;8.00;;;13.90;99.90;;;;;;5064222;28;20549;-83
2022/10/31 06:06:32;;;;;;;14.03;8.07;;;13.90;99.90;;;;;;5041273;28;20456;-84
2022/10/31 06:08:59;;;;;;;15.97;8.57;;;13.90;99.90;;;;;;5049582;28;20485;-84
2022/10/31 06:11:26;;;;;;;11.93;7.63;;;13.90;99.90;;;;;;5051265;28;20476;-84
2022/10/31 06:13:53;;;;;;;12.50;8.33;;;13.90;99.90;;;;;;5046285;28;20446;-85
2022/10/31 06:16:19;;;;;;;11.80;6.90;;;13.90;99.90;;;;;;5047691;28;20446;-83
2022/10/31 06:18:48;;;;;;;18.13;9.13;;;13.90;99.90;;;;;;5032157;28;21162;-84
2022/10/31 06:21:15;;;;;;;11.10;7.57;;;13.90;99.90;;;;;;5044163;28;20474;-84
2022/10/31 06:23:42;;;;;;;12.90;8.13;;;13.90;99.90;;;;;;5048992;28;20793;-84
2022/10/31 06:26:09;;;;;;;15.00;8.47;;;13.90;99.90;;;;;;5037500;28;20473;-83
2022/10/31 06:28:36;;;;;;;16.43;9.07;;;13.90;99.90;;;;;;5039931;28;20482;-85
2022/10/31 06:31:02;;;;;;;13.50;8.00;;;13.90;99.90;;;;;;5042015;28;20565;-84
2022/10/31 06:33:29;;;;;;;13.00;7.90;;;13.90;99.90;;;;;;5048628;28;20519;-84
2022/10/31 06:35:57;;;;;;;12.30;8.40;;;13.90;99.90;;;;;;5046715;28;20458;-84
2022/10/31 06:38:26;;;;;;;13.53;8.47;;;13.90;99.90;;;;;;5040870;28;20451;-82
2022/10/31 06:40:52;;;;;;;19.63;9.90;;;13.90;99.90;;;;;;5042501;28;20524;-84
2022/10/31 06:43:19;;;;;;;13.50;7.40;;;13.90;99.90;;;;;;5045873;28;20453;-83
2022/10/31 06:45:46;;;;;;;13.80;9.10;;;13.90;99.90;;;;;;5042309;28;20464;-84
2022/10/31 06:48:13;;;;;;;11.40;7.97;;;13.90;99.90;;;;;;5040933;28;20476;-84
2022/10/31 06:50:40;;;;;;;10.80;8.70;;;13.90;99.90;;;;;;5035454;28;20449;-87
2022/10/31 06:53:09;;;;;;;14.27;8.50;;;13.90;99.90;;;;;;5037551;28;20453;-85
2022/10/31 06:55:36;;;;;;;20.77;9.67;;;13.90;99.90;;;;;;5033190;28;20521;-87
2022/10/31 06:58:02;;;;;;;12.27;7.90;;;13.90;99.90;;;;;;5034488;28;20449;-87
2022/10/31 07:00:31;;;;;;;14.27;9.10;;;14.00;99.90;;;;;;5034008;28;20463;-86
2022/10/31 07:02:59;;;;;;;13.70;8.87;;;14.00;99.90;;;;;;5036327;28;21932;-87
2022/10/31 07:05:26;;;;;;;16.07;9.43;;;14.00;99.90;;;;;;5034053;28;20460;-86
2022/10/31 07:07:54;;;;;;;12.73;9.37;;;14.00;99.90;;;;;;5034923;28;20467;-87
2022/10/31 07:10:23;;;;;;;16.30;10.20;;;14.10;99.90;;;;;;5036113;28;20485;-88
2022/10/31 07:12:54;;;;;;;14.73;8.47;;;14.10;99.90;;;;;;5054059;28;20508;-88
2022/10/31 07:15:21;;;;;;;14.27;9.20;;;14.10;99.90;;;;;;5078013;28;20421;-89
2022/10/31 07:17:48;;;;;;;13.67;8.70;;;14.10;99.90;;;;;;5065719;28;20455;-88
2022/10/31 07:20:15;;;;;;;12.00;9.70;;;14.10;99.90;;;;;;5045530;28;20455;-86
2022/10/31 07:22:41;;;;;;;19.27;9.27;;;14.20;99.90;;;;;;5043446;28;21059;-87
2022/10/31 07:25:09;;;;;;;20.30;9.70;;;14.20;99.90;;;;;;5037151;28;20451;-87
2022/10/31 07:27:38;;;;;;;27.23;10.40;;;14.20;99.90;;;;;;5033734;28;20446;-85
2022/10/31 07:30:06;;;;;;;20.27;10.60;;;14.20;99.90;;;;;;5033960;28;20496;-86
2022/10/31 07:32:39;;;;;;;18.57;9.60;;;14.20;99.90;;;;;;5035208;28;20500;-86
2022/10/31 07:35:07;;;;;;;22.87;11.33;;;14.30;99.90;;;;;;5013691;28;20442;-85
2022/10/31 07:37:34;;;;;;;23.20;10.57;;;14.30;99.90;;;;;;5014435;28;20475;-87
2022/10/31 07:40:01;;;;;;;19.83;9.70;;;14.30;99.90;;;;;;5013901;28;20449;-87
2022/10/31 07:42:28;;;;;;;19.90;10.73;;;14.30;99.90;;;;;;5015958;28;20493;-86
2022/10/31 07:44:56;;;;;;;18.20;11.50;;;14.30;99.90;;;;;;5054001;28;20456;-87
2022/10/31 07:47:23;;;;;;;18.20;9.83;;;14.40;99.90;;;;;;5053959;28;20952;-87
2022/10/31 07:49:50;;;;;;;12.53;8.30;;;14.40;99.90;;;;;;5053190;28;20525;-87
2022/10/31 07:52:17;;;;;;;21.13;10.60;;;14.40;99.90;;;;;;5054070;28;20464;-88
2022/10/31 07:54:43;;;;;;;16.73;10.47;;;14.50;99.90;;;;;;5034638;28;20464;-86
2022/10/31 07:57:10;;;;;;;16.07;10.00;;;14.50;99.90;;;;;;5033511;28;20476;-86
2022/10/31 07:59:37;;;;;;;19.07;10.00;;;14.50;99.90;;;;;;5032676;28;21031;-87
2022/10/31 08:02:05;;;;;;;14.97;10.07;;;14.60;99.90;;;;;;5033216;28;20475;-87
2022/10/31 08:04:32;;;;;;;14.57;8.63;;;14.60;99.90;;;;;;5033567;28;20975;-88
2022/10/31 08:06:59;;;;;;;14.73;8.97;;;14.60;99.90;;;;;;5033102;28;21004;-87
2022/10/31 08:09:26;;;;;;;13.90;9.33;;;14.70;99.90;;;;;;5031761;28;20488;-87
2022/10/31 08:11:53;;;;;;;16.93;9.63;;;14.70;99.90;;;;;;5033161;28;21070;-86
2022/10/31 08:14:20;;;;;;;14.77;9.90;;;14.70;99.90;;;;;;5051597;28;20487;-86
2022/10/31 08:16:47;;;;;;;15.23;11.07;;;14.80;99.90;;;;;;5053079;28;20452;-87
2022/10/31 08:19:15;;;;;;;12.77;9.10;;;14.90;99.90;;;;;;5052988;28;20552;-86
2022/10/31 08:21:42;;;;;;;16.80;10.13;;;14.90;99.90;;;;;;5052955;28;20494;-87
2022/10/31 08:24:09;;;;;;;15.63;9.63;;;15.00;99.90;;;;;;5052653;28;20462;-87
2022/10/31 08:26:36;;;;;;;16.07;10.70;;;15.00;99.90;;;;;;5052823;28;20451;-88
2022/10/31 08:29:03;;;;;;;15.80;10.53;;;15.00;99.90;;;;;;5052376;28;20589;-88
2022/10/31 08:31:30;;;;;;;15.33;9.97;;;15.10;99.90;;;;;;5052536;28;20474;-87
2022/10/31 08:33:57;;;;;;;18.63;9.87;;;15.20;99.90;;;;;;5035775;28;20539;-88
2022/10/31 08:36:25;;;;;;;13.50;9.37;;;15.20;99.90;;;;;;5032266;28;20535;-87
2022/10/31 08:38:52;;;;;;;17.23;10.47;;;15.30;99.90;;;;;;5032612;28;20478;-88
2022/10/31 08:41:19;;;;;;;16.70;12.10;;;15.40;99.90;;;;;;5032794;28;20480;-87
2022/10/31 08:43:46;;;;;;;13.47;10.43;;;15.40;99.90;;;;;;5047930;28;20459;-87
2022/10/31 08:46:13;;;;;;;16.57;11.27;;;15.50;99.90;;;;;;5052439;28;20443;-87
2022/10/31 08:48:40;;;;;;;15.57;11.97;;;15.50;99.90;;;;;;5052188;28;20978;-87
2022/10/31 08:51:07;;;;;;;18.00;11.40;;;15.60;99.90;;;;;;5053078;28;20513;-88
2022/10/31 08:53:35;;;;;;;14.70;10.00;;;15.70;99.90;;;;;;5052030;28;20470;-88
2022/10/31 08:56:02;;;;;;;26.10;12.83;;;15.80;99.90;;;;;;5052484;28;20455;-88
2022/10/31 08:58:29;;;;;;;17.13;11.20;;;15.80;99.90;;;;;;5051723;28;20544;-88
2022/10/31 09:00:56;;;;;;;18.73;11.57;;;15.90;99.90;;;;;;5052279;28;20477;-88
2022/10/31 09:03:27;;;;;;;14.93;11.13;;;15.90;99.90;;;;;;5040928;28;20809;-88
2022/10/31 09:05:57;;;;;;;15.30;11.27;;;16.00;99.90;;;;;;5032563;28;20562;-87
2022/10/31 09:08:24;;;;;;;20.30;10.03;;;16.10;99.90;;;;;;5031935;28;20456;-88
2022/10/31 09:10:53;;;;;;;20.70;12.50;;;16.20;99.90;;;;;;5032808;28;20798;-86
2022/10/31 09:13:21;;;;;;;18.80;11.63;;;16.30;99.90;;;;;;5042938;28;20455;-88
2022/10/31 09:15:50;;;;;;;20.00;11.93;;;16.30;99.90;;;;;;5053078;28;20452;-86
2022/10/31 09:18:18;;;;;;;19.10;10.80;;;16.30;99.90;;;;;;5052276;28;20502;-88
2022/10/31 09:20:47;;;;;;;21.70;11.23;;;16.40;99.90;;;;;;5056143;28;20894;-86
2022/10/31 09:23:18;;;;;;;19.33;9.80;;;16.50;99.90;;;;;;5046306;28;20460;-86
2022/10/31 09:25:46;;;;;;;17.80;10.53;;;16.50;99.90;;;;;;5036005;28;20452;-87
2022/10/31 09:28:16;;;;;;;17.90;11.03;;;16.60;99.90;;;;;;5035614;28;20460;-88
2022/10/31 09:30:46;;;;;;;19.20;12.47;;;16.70;99.90;;;;;;5035575;28;20520;-89
2022/10/31 09:33:14;;;;;;;19.57;12.57;;;16.60;99.90;;;;;;5045512;28;20546;-88
2022/10/31 09:35:41;;;;;;;14.80;10.73;;;16.70;99.90;;;;;;5053953;28;20535;-89
2022/10/31 09:38:11;;;;;;;22.60;11.90;;;16.80;99.90;;;;;;5055606;28;21219;-87
2022/10/31 09:40:40;;;;;;;21.07;13.23;;;16.80;99.90;;;;;;5056004;28;20465;-88
2022/10/31 09:43:20;;;;;;;17.73;11.70;;;16.90;99.90;;;;;;5046345;28;20460;-88
2022/10/31 09:45:57;;;;;;;18.97;11.97;;;17.00;99.90;;;;;;5035719;28;20448;-89
2022/10/31 09:48:38;;;;;;;17.03;13.03;;;17.10;99.90;;;;;;5033168;28;20469;-86
2022/10/31 09:51:08;;;;;;;20.40;12.27;;;17.20;99.90;;;;;;5035416;28;21036;-89
2022/10/31 09:53:40;;;;;;;18.13;13.40;;;17.30;99.90;;;;;;5048014;28;20545;-87
2022/10/31 09:56:10;;;;;;;17.03;12.30;;;17.30;99.90;;;;;;5054842;28;20544;-87
2022/10/31 09:58:44;;;;;;;22.80;15.00;;;17.40;99.90;;;;;;5054946;28;20548;-89
2022/10/31 10:01:27;;;;;;;29.17;16.73;;;17.40;99.90;;;;;;5055506;28;20500;-89
2022/10/31 10:03:59;;;;;;;26.23;16.00;;;17.40;99.90;;;;;;5054999;28;20510;-88
2022/10/31 10:06:30;;;;;;;22.00;15.53;;;17.50;99.90;;;;;;5055098;28;20472;-89
2022/10/31 10:08:57;;;;;;;22.70;15.73;;;17.50;99.90;;;;;;5054627;28;20421;-87
2022/10/31 10:11:34;;;;;;;23.17;15.30;;;17.50;99.90;;;;;;5054586;28;20488;-89
2022/10/31 10:14:29;;;;;;;21.70;15.17;;;17.50;99.90;;;;;;5054234;28;20533;-87
2022/10/31 10:17:12;;;;;;;22.50;14.53;;;17.50;99.90;;;;;;5054739;28;20468;-88
2022/10/31 10:20:06;;;;;;;22.97;15.00;;;17.60;99.90;;;;;;5054504;28;20540;-89
2022/10/31 10:22:41;;;;;;;21.57;14.20;;;17.70;99.90;;;;;;5051444;28;20847;-87
2022/10/31 10:25:19;;;;;;;23.03;14.17;;;17.80;99.90;;;;;;5034632;28;20512;-88
2022/10/31 10:27:59;;;;;;;20.73;13.53;;;17.90;99.90;;;;;;5034555;28;20537;-88
2022/10/31 10:30:35;;;;;;;26.70;16.60;;;18.00;99.90;;;;;;5033224;28;20548;-88
2022/10/31 10:33:08;;;;;;;21.20;13.27;;;18.10;99.90;;;;;;5041281;28;20894;-88
2022/10/31 10:35:39;;;;;;;25.97;14.10;;;18.20;99.90;;;;;;5054940;28;20475;-89
2022/10/31 10:38:16;;;;;;;20.23;13.63;;;18.20;99.90;;;;;;5054105;28;20440;-89
2022/10/31 10:40:43;;;;;;;19.03;12.40;;;18.20;99.90;;;;;;5055770;28;20492;-88
2022/10/31 10:43:22;;;;;;;25.20;13.70;;;18.40;99.90;;;;;;5046264;28;20466;-89
2022/10/31 10:48:46;;;;;;;24.90;14.10;;;18.80;99.90;;;;;;5032906;28;20438;-88
2022/10/31 10:51:22;;;;;;;19.73;13.63;;;19.30;99.90;;;;;;5038083;28;20492;-88
2022/10/31 10:54:03;;;;;;;25.53;12.43;;;19.80;99.90;;;;;;5051041;28;20451;-88
2022/10/31 10:56:41;;;;;;;17.83;12.40;;;20.00;99.90;;;;;;5054860;28;20453;-89
2022/10/31 10:59:13;;;;;;;20.50;13.17;;;20.20;99.90;;;;;;5056404;28;20448;-89
2022/10/31 11:01:42;;;;;;;16.20;12.27;;;20.20;99.90;;;;;;5057191;28;20470;-89
2022/10/31 11:04:30;;;;;;;19.93;11.53;;;20.10;99.90;;;;;;5037890;28;20796;-87
2022/10/31 11:07:02;;;;;;;17.43;12.80;;;19.80;99.90;;;;;;5037037;28;20457;-89
2022/10/31 11:09:29;;;;;;;18.37;10.50;;;19.70;99.90;;;;;;5037812;28;20512;-89
2022/10/31 11:11:57;;;;;;;16.17;11.70;;;19.50;99.90;;;;;;5036877;28;20983;-88
2022/10/31 11:14:24;;;;;;;23.10;11.30;;;19.30;99.90;;;;;;5035851;28;20467;-87
2022/10/31 11:16:56;;;;;;;14.83;10.60;;;19.30;99.90;;;;;;5040521;28;20548;-87
2022/10/31 11:19:26;;;;;;;15.20;10.90;;;19.30;99.90;;;;;;5037823;28;20539;-88
2022/10/31 11:21:53;;;;;;;18.90;11.17;;;19.20;99.90;;;;;;5035933;28;20503;-89
2022/10/31 11:24:23;;;;;;;17.70;11.30;;;19.20;99.90;;;;;;5053947;28;20994;-87
2022/10/31 11:26:51;;;;;;;18.13;11.80;;;19.10;99.90;;;;;;5055138;28;20542;-89
2022/10/31 11:29:24;;;;;;;17.77;11.27;;;19.00;99.90;;;;;;5054334;28;20459;-89
2022/10/31 11:31:54;;;;;;;14.90;10.00;;;18.90;99.90;;;;;;5054887;28;20834;-88
2022/10/31 11:34:30;;;;;;;17.20;10.30;;;18.90;99.90;;;;;;5013765;28;20484;-88
2022/10/31 11:37:03;;;;;;;21.43;11.73;;;18.90;99.90;;;;;;5013934;28;20492;-88
2022/10/31 11:39:30;;;;;;;20.43;10.77;;;18.80;99.90;;;;;;5034557;28;20452;-89
2022/10/31 11:42:03;;;;;;;16.37;10.90;;;18.80;99.90;;;;;;5052563;28;20630;-88
2022/10/31 11:44:32;;;;;;;15.90;11.40;;;18.80;99.90;;;;;;5042914;28;20452;-88
2022/10/31 11:47:03;;;;;;;19.20;10.50;;;18.90;99.90;;;;;;5033016;28;20545;-89
2022/10/31 11:49:33;;;;;;;17.97;10.70;;;18.90;99.90;;;;;;5031188;28;20452;-88
2022/10/31 11:52:04;;;;;;;18.27;11.87;;;19.10;99.90;;;;;;5032847;28;20473;-88
2022/10/31 11:54:35;;;;;;;17.90;12.00;;;19.10;99.90;;;;;;5033630;28;20539;-88
2022/10/31 11:57:02;;;;;;;21.13;10.50;;;19.10;99.90;;;;;;5045945;28;20963;-88
2022/10/31 11:59:31;;;;;;;13.60;9.50;;;19.30;99.90;;;;;;5052982;28;20446;-89
2022/10/31 12:02:02;;;;;;;17.83;10.03;;;19.40;99.90;;;;;;5052989;28;20463;-89
2022/10/31 12:04:41;;;;;;;15.20;9.97;;;19.40;99.90;;;;;;5052826;28;20450;-88
2022/10/31 12:07:10;;;;;;;23.77;11.33;;;19.40;99.90;;;;;;5052579;28;20541;-88
2022/10/31 12:09:39;;;;;;;18.40;10.27;;;19.50;99.90;;;;;;5052049;28;20448;-88
2022/10/31 12:12:40;;;;;;;13.63;9.60;;;19.50;99.90;;;;;;5052278;28;20544;-88
2022/10/31 12:15:20;;;;;;;15.93;9.37;;;19.50;99.90;;;;;;5049420;28;20529;-89
2022/10/31 12:17:54;;;;;;;12.50;7.90;;;19.60;99.90;;;;;;5041030;28;20844;-89
2022/10/31 12:20:29;;;;;;;15.17;9.07;;;19.60;99.90;;;;;;5034470;28;20425;-89
2022/10/31 12:23:04;;;;;;;12.83;7.50;;;19.70;99.90;;;;;;5033253;28;20974;-89
2022/10/31 12:25:40;;;;;;;13.73;7.10;;;19.70;99.90;;;;;;5033248;28;20420;-89
2022/10/31 12:28:36;;;;;;;13.50;7.13;;;19.80;99.90;;;;;;5031542;28;20507;-88
2022/10/31 12:31:20;;;;;;;15.40;7.90;;;19.90;99.90;;;;;;5031800;28;20573;-89
2022/10/31 12:33:59;;;;;;;13.93;7.33;;;20.10;99.90;;;;;;5047592;28;20471;-89
2022/10/31 12:36:36;;;;;;;12.00;6.60;;;20.10;99.90;;;;;;5052754;28;20428;-89
2022/10/31 12:39:17;;;;;;;14.50;7.17;;;20.20;99.90;;;;;;5051418;28;20474;-89
2022/10/31 12:41:50;;;;;;;13.37;6.23;;;20.40;99.90;;;;;;5051249;28;20479;-89
2022/10/31 12:44:44;;;;;;;14.17;6.30;;;20.50;99.90;;;;;;5051976;28;20463;-89
2022/10/31 12:47:33;;;;;;;10.90;6.80;;;20.60;99.90;;;;;;5051821;28;20530;-89
2022/10/31 12:50:23;;;;;;;11.63;6.57;;;20.80;99.90;;;;;;5050269;28;20987;-89
2022/10/31 12:53:01;;;;;;;13.70;6.73;;;21.10;99.90;;;;;;5048474;28;20510;-89